createdAt,value
2017-06-18T00:01:59.291Z,99.50
2017-06-18T00:04:26.806Z,99.20
2017-06-18T00:06:54.317Z,99.50
2017-06-18T00:09:21.886Z,99.50
2017-06-18T00:11:49.385Z,99.30
2017-06-18T00:14:16.885Z,99.50
2017-06-18T00:16:44.415Z,99.30
2017-06-18T00:19:11.923Z,99.50
2017-06-18T00:21:39.415Z,99.90
2017-06-18T00:24:06.932Z,99.90
2017-06-18T00:26:34.436Z,99.90
2017-06-18T00:29:01.953Z,99.90
2017-06-18T00:31:29.461Z,99.90
2017-06-18T00:33:56.976Z,99.90
2017-06-18T00:36:24.490Z,99.90
2017-06-18T00:38:52.001Z,99.90
2017-06-18T00:41:19.517Z,99.90
2017-06-18T00:43:47.012Z,99.90
2017-06-18T00:46:14.518Z,99.90
2017-06-18T00:48:42.020Z,99.90
2017-06-18T00:51:09.520Z,99.90
2017-06-18T00:53:37.052Z,99.90
2017-06-18T00:56:04.559Z,99.90
2017-06-18T00:58:32.073Z,99.90
2017-06-18T01:00:59.605Z,99.90
2017-06-18T01:03:27.887Z,99.90
2017-06-18T01:05:56.185Z,99.90
2017-06-18T01:08:23.675Z,99.90
2017-06-18T01:10:51.169Z,99.90
2017-06-18T01:13:19.444Z,99.90
2017-06-18T01:15:47.712Z,99.90
2017-06-18T01:18:15.241Z,99.90
2017-06-18T01:20:42.769Z,99.90
2017-06-18T01:23:10.262Z,99.90
2017-06-18T01:25:37.771Z,99.90
2017-06-18T01:28:05.259Z,99.90
2017-06-18T01:30:32.796Z,99.90
2017-06-18T01:33:00.298Z,99.90
2017-06-18T01:35:27.788Z,99.90
2017-06-18T01:37:55.302Z,99.90
2017-06-18T01:40:22.814Z,99.90
2017-06-18T01:42:51.516Z,99.90
2017-06-18T01:45:19.016Z,99.90
2017-06-18T01:47:46.508Z,99.90
2017-06-18T01:50:14.026Z,99.90
2017-06-18T01:52:41.537Z,99.90
2017-06-18T01:55:09.834Z,99.90
2017-06-18T01:57:37.324Z,99.90
2017-06-18T02:00:04.860Z,99.90
2017-06-18T02:02:32.392Z,99.90
2017-06-18T02:04:59.888Z,99.90
2017-06-18T02:07:27.411Z,99.90
2017-06-18T02:09:55.680Z,99.90
2017-06-18T02:12:23.168Z,99.90
2017-06-18T02:14:50.678Z,99.90
2017-06-18T02:17:18.175Z,99.90
2017-06-18T02:19:45.696Z,99.90
2017-06-18T02:22:13.192Z,99.90
2017-06-18T02:24:41.468Z,99.90
2017-06-18T02:27:08.980Z,99.90
2017-06-18T02:29:36.471Z,99.90
2017-06-18T02:32:04.001Z,99.90
2017-06-18T02:34:31.506Z,99.90
2017-06-18T02:36:59.000Z,99.90
2017-06-18T02:39:26.508Z,99.90
2017-06-18T02:41:53.997Z,99.90
2017-06-18T02:44:21.522Z,99.90
2017-06-18T02:46:49.022Z,99.90
2017-06-18T02:49:16.569Z,99.90
2017-06-18T02:51:44.072Z,99.90
2017-06-18T02:54:11.577Z,99.90
2017-06-18T02:56:39.088Z,99.90
2017-06-18T02:59:06.576Z,99.90
2017-06-18T03:01:34.072Z,99.90
2017-06-18T03:04:01.589Z,99.90
2017-06-18T03:06:29.085Z,99.90
2017-06-18T03:08:56.603Z,99.90
2017-06-18T03:11:24.100Z,99.90
2017-06-18T03:13:51.600Z,99.90
2017-06-18T03:16:19.108Z,99.90
2017-06-18T03:19:16.076Z,99.90
2017-06-18T03:21:49.183Z,99.90
2017-06-18T03:24:20.155Z,99.90
2017-06-18T03:26:47.643Z,99.90
2017-06-18T03:29:15.156Z,99.90
2017-06-18T03:31:42.656Z,99.90
2017-06-18T03:34:10.947Z,99.90
2017-06-18T03:36:38.445Z,99.90
2017-06-18T03:39:05.937Z,99.90
2017-06-18T03:41:33.447Z,99.90
2017-06-18T03:44:00.943Z,99.90
2017-06-18T03:46:28.465Z,99.90
2017-06-18T03:48:55.960Z,99.90
2017-06-18T03:51:23.446Z,99.90
2017-06-18T03:53:51.725Z,99.90
2017-06-18T03:56:19.224Z,99.90
2017-06-18T03:58:46.741Z,99.90
2017-06-18T04:01:14.234Z,99.90
2017-06-18T04:03:41.732Z,99.90
2017-06-18T04:06:09.248Z,99.90
2017-06-18T04:08:36.737Z,99.90
2017-06-18T04:11:04.263Z,99.90
2017-06-18T04:13:31.752Z,99.90
2017-06-18T04:15:59.254Z,99.90
2017-06-18T04:18:27.540Z,99.90
2017-06-18T04:20:55.799Z,99.90
2017-06-18T04:23:23.321Z,99.90
2017-06-18T04:25:50.850Z,99.90
2017-06-18T04:28:18.351Z,99.90
2017-06-18T04:30:45.852Z,99.90
2017-06-18T04:33:13.344Z,99.90
2017-06-18T04:35:40.860Z,99.90
2017-06-18T04:38:08.361Z,99.90
2017-06-18T04:40:35.863Z,99.90
2017-06-18T04:43:03.491Z,99.90
2017-06-18T04:45:30.994Z,99.90
2017-06-18T04:47:58.522Z,99.90
2017-06-18T04:50:26.015Z,99.90
2017-06-18T04:52:53.532Z,99.90
2017-06-18T04:55:21.063Z,99.90
2017-06-18T04:57:48.560Z,99.90
2017-06-18T05:00:16.079Z,99.90
2017-06-18T05:02:43.569Z,99.90
2017-06-18T05:05:11.057Z,99.90
2017-06-18T05:07:38.563Z,99.90
2017-06-18T05:10:06.050Z,99.90
2017-06-18T05:12:33.575Z,99.90
2017-06-18T05:15:01.065Z,99.90
2017-06-18T05:17:28.563Z,99.90
2017-06-18T05:19:56.074Z,99.90
2017-06-18T05:22:23.596Z,99.90
2017-06-18T05:24:51.140Z,99.90
2017-06-18T05:27:18.635Z,99.90
2017-06-18T05:29:46.137Z,99.90
2017-06-18T05:32:13.651Z,99.90
2017-06-18T05:34:41.157Z,99.90
2017-06-18T05:37:08.683Z,99.90
2017-06-18T05:39:36.186Z,99.90
2017-06-18T05:42:03.820Z,99.90
2017-06-18T05:44:31.333Z,99.90
2017-06-18T05:46:58.832Z,99.90
2017-06-18T05:49:26.366Z,99.90
2017-06-18T05:51:53.862Z,99.90
2017-06-18T05:54:21.359Z,99.90
2017-06-18T05:56:48.864Z,99.90
2017-06-18T05:59:16.365Z,99.90
2017-06-18T06:01:43.880Z,99.90
2017-06-18T06:04:11.411Z,99.90
2017-06-18T06:06:39.680Z,99.90
2017-06-18T06:09:07.190Z,99.90
2017-06-18T06:11:34.689Z,99.90
2017-06-18T06:14:02.213Z,99.90
2017-06-18T06:16:29.711Z,99.90
2017-06-18T06:18:57.204Z,99.90
2017-06-18T06:21:24.717Z,99.90
2017-06-18T06:23:52.232Z,99.90
2017-06-18T06:26:19.761Z,99.90
2017-06-18T06:28:48.029Z,99.90
2017-06-18T06:31:15.519Z,99.90
2017-06-18T06:33:43.019Z,99.90
2017-06-18T06:36:10.520Z,99.90
2017-06-18T06:38:38.051Z,99.90
2017-06-18T06:41:05.560Z,99.90
2017-06-18T06:43:33.062Z,99.90
2017-06-18T06:46:01.478Z,99.90
2017-06-18T06:48:29.741Z,99.90
2017-06-18T06:50:57.254Z,99.90
2017-06-18T06:53:24.769Z,99.90
2017-06-18T06:55:53.034Z,99.90
2017-06-18T06:58:20.540Z,99.90
2017-06-18T07:00:48.060Z,99.90
2017-06-18T07:03:15.580Z,99.90
2017-06-18T07:05:43.080Z,99.90
2017-06-18T07:08:10.602Z,99.90
2017-06-18T07:10:38.123Z,99.90
2017-06-18T07:13:05.620Z,99.90
2017-06-18T07:27:57.430Z,99.90
2017-06-18T07:30:24.953Z,99.90
2017-06-18T07:32:52.467Z,99.90
2017-06-18T07:35:19.961Z,99.90
2017-06-18T07:37:47.472Z,99.90
2017-06-18T07:40:14.962Z,99.90
2017-06-18T07:42:43.246Z,99.90
2017-06-18T07:45:10.755Z,99.90
2017-06-18T07:47:38.248Z,99.90
2017-06-18T07:50:05.749Z,99.90
2017-06-18T07:52:33.260Z,99.70
2017-06-18T07:55:00.787Z,99.20
2017-06-18T07:57:28.284Z,98.60
2017-06-18T07:59:55.846Z,98.00
2017-06-18T08:02:23.364Z,98.00
2017-06-18T08:04:50.861Z,97.20
2017-06-18T08:07:18.383Z,97.60
2017-06-18T08:09:45.882Z,98.80
2017-06-18T08:12:13.376Z,98.70
2017-06-18T08:14:40.892Z,96.70
2017-06-18T08:17:08.385Z,96.00
2017-06-18T08:19:35.937Z,96.50
2017-06-18T08:22:03.437Z,97.20
2017-06-18T08:24:30.957Z,95.90
2017-06-18T08:26:58.485Z,96.30
2017-06-18T08:29:25.988Z,96.20
2017-06-18T08:31:53.517Z,96.10
2017-06-18T08:34:21.016Z,96.20
2017-06-18T08:36:48.521Z,95.70
2017-06-18T08:39:16.043Z,95.30
2017-06-18T08:41:43.537Z,95.00
2017-06-18T08:44:11.049Z,95.20
2017-06-18T08:46:38.553Z,95.90
2017-06-18T08:49:06.068Z,96.00
2017-06-18T08:51:33.581Z,96.10
2017-06-18T08:54:01.092Z,93.10
2017-06-18T08:56:28.617Z,93.40
2017-06-18T08:58:56.159Z,93.00
2017-06-18T09:01:23.660Z,92.70
2017-06-18T09:03:51.195Z,93.50
2017-06-18T09:06:18.691Z,92.90
2017-06-18T09:08:46.231Z,91.70
2017-06-18T09:11:13.729Z,90.30
2017-06-18T09:13:41.229Z,90.50
2017-06-18T09:16:08.752Z,90.20
2017-06-18T09:18:36.282Z,90.90
2017-06-18T09:21:03.829Z,92.20
2017-06-18T09:23:32.101Z,90.50
2017-06-18T09:25:59.612Z,90.50
2017-06-18T09:28:27.144Z,87.50
2017-06-18T09:30:54.661Z,84.10
2017-06-18T09:33:22.972Z,86.80
2017-06-18T09:35:50.477Z,86.20
2017-06-18T09:38:17.993Z,84.30
2017-06-18T09:40:45.501Z,84.80
2017-06-18T09:43:13.009Z,84.20
2017-06-18T09:45:40.537Z,84.70
2017-06-18T09:48:08.812Z,85.10
2017-06-18T09:50:36.321Z,85.00
2017-06-18T09:53:03.853Z,84.10
2017-06-18T09:55:31.349Z,84.70
2017-06-18T09:57:58.876Z,83.00
2017-06-18T10:00:26.385Z,81.50
2017-06-18T10:02:53.891Z,80.10
2017-06-18T10:05:21.416Z,80.00
2017-06-18T10:07:48.910Z,79.10
2017-06-18T10:10:16.440Z,80.10
2017-06-18T10:12:43.936Z,83.20
2017-06-18T10:15:12.590Z,81.50
2017-06-18T10:17:40.112Z,76.00
2017-06-18T10:20:07.629Z,74.80
2017-06-18T10:22:35.132Z,75.90
2017-06-18T10:25:02.644Z,76.60
2017-06-18T10:27:30.941Z,77.90
2017-06-18T10:29:58.457Z,77.90
2017-06-18T10:32:25.948Z,78.60
2017-06-18T10:34:53.460Z,75.40
2017-06-18T10:37:20.952Z,74.20
2017-06-18T10:39:48.481Z,73.00
2017-06-18T10:42:15.993Z,71.70
2017-06-18T10:44:43.492Z,69.60
2017-06-18T10:47:11.009Z,68.40
2017-06-18T10:49:38.524Z,67.90
2017-06-18T10:52:06.056Z,67.90
2017-06-18T10:54:33.548Z,68.20
2017-06-18T10:57:01.061Z,67.90
2017-06-18T10:59:28.572Z,68.90
2017-06-18T11:01:56.074Z,65.60
2017-06-18T11:04:23.885Z,65.80
2017-06-18T11:06:51.388Z,65.40
2017-06-18T11:09:18.885Z,66.60
2017-06-18T11:11:46.400Z,66.70
2017-06-18T11:14:13.908Z,66.30
2017-06-18T11:16:41.445Z,66.80
2017-06-18T11:19:08.933Z,66.10
2017-06-18T11:21:36.441Z,65.10
2017-06-18T11:24:03.972Z,67.90
2017-06-18T11:26:31.472Z,66.50
2017-06-18T11:28:58.996Z,65.00
2017-06-18T11:31:26.500Z,63.80
2017-06-18T11:33:54.020Z,60.10
2017-06-18T11:36:22.287Z,58.30
2017-06-18T11:38:49.778Z,58.10
2017-06-18T11:41:17.300Z,60.80
2017-06-18T11:43:44.847Z,60.40
2017-06-18T11:46:12.370Z,62.80
2017-06-18T11:48:39.876Z,63.20
2017-06-18T11:51:07.384Z,62.60
2017-06-18T11:53:34.913Z,64.10
2017-06-18T11:56:03.190Z,62.60
2017-06-18T11:58:31.457Z,63.50
2017-06-18T12:00:58.974Z,63.00
2017-06-18T12:03:26.470Z,62.00
2017-06-18T12:05:54.020Z,62.00
2017-06-18T12:08:21.517Z,63.50
2017-06-18T12:10:49.037Z,62.70
2017-06-18T12:13:16.555Z,63.20
2017-06-18T12:15:44.048Z,64.30
2017-06-18T12:18:11.606Z,64.10
2017-06-18T12:20:39.109Z,65.50
2017-06-18T12:23:07.402Z,67.70
2017-06-18T12:25:34.927Z,67.70
2017-06-18T12:28:02.437Z,66.50
2017-06-18T12:30:29.954Z,65.10
2017-06-18T12:32:57.450Z,63.50
2017-06-18T12:35:25.024Z,61.90
2017-06-18T12:37:52.542Z,61.30
2017-06-18T12:40:20.046Z,60.10
2017-06-18T12:42:47.546Z,58.90
2017-06-18T12:45:15.079Z,56.60
2017-06-18T12:47:42.610Z,60.80
2017-06-18T12:50:10.113Z,63.00
2017-06-18T12:52:37.627Z,63.40
2017-06-18T12:55:05.141Z,62.70
2017-06-18T12:57:32.669Z,62.90
2017-06-18T13:00:00.164Z,61.10
2017-06-18T13:02:27.663Z,60.90
2017-06-18T13:04:55.189Z,62.00
2017-06-18T13:07:22.688Z,61.60
2017-06-18T13:09:50.230Z,62.10
2017-06-18T13:12:17.741Z,61.40
2017-06-18T13:14:45.259Z,61.10
2017-06-18T13:17:12.826Z,60.70
2017-06-18T13:19:40.338Z,61.30
2017-06-18T13:22:08.746Z,61.60
2017-06-18T13:24:36.282Z,61.50
2017-06-18T13:27:04.552Z,62.80
2017-06-18T13:29:32.077Z,62.70
2017-06-18T13:31:59.589Z,63.80
2017-06-18T13:34:27.125Z,63.20
2017-06-18T13:36:54.616Z,63.40
2017-06-18T13:39:22.107Z,62.70
2017-06-18T13:41:49.619Z,62.90
2017-06-18T13:44:18.167Z,63.10
2017-06-18T13:46:45.693Z,63.10
2017-06-18T13:49:13.202Z,64.30
2017-06-18T13:51:40.710Z,63.00
2017-06-18T13:54:08.240Z,64.40
2017-06-18T13:56:35.747Z,64.00
2017-06-18T13:59:03.288Z,65.00
2017-06-18T14:01:30.785Z,64.80
2017-06-18T14:03:58.303Z,64.80
2017-06-18T14:06:25.840Z,65.00
2017-06-18T14:08:54.116Z,66.00
2017-06-18T14:11:22.409Z,65.00
2017-06-18T14:13:49.909Z,65.00
2017-06-18T14:16:17.413Z,64.60
2017-06-18T14:18:45.041Z,63.90
2017-06-18T14:21:12.542Z,63.90
2017-06-18T14:23:40.063Z,64.70
2017-06-18T14:26:07.566Z,64.10
2017-06-18T14:28:35.083Z,63.60
2017-06-18T14:31:02.612Z,65.60
2017-06-18T14:33:30.137Z,63.80
2017-06-18T14:35:57.917Z,64.70
2017-06-18T14:38:25.426Z,63.70
2017-06-18T14:40:52.944Z,63.70
2017-06-18T14:43:20.469Z,63.50
2017-06-18T14:45:47.985Z,63.50
2017-06-18T14:48:15.536Z,63.90
2017-06-18T14:50:43.068Z,64.80
2017-06-18T14:53:10.576Z,63.70
2017-06-18T14:55:38.094Z,64.30
2017-06-18T14:58:05.595Z,64.90
2017-06-18T15:00:33.420Z,64.60
2017-06-18T15:03:00.934Z,66.30
2017-06-18T15:05:28.460Z,65.70
2017-06-18T15:07:55.974Z,66.80
2017-06-18T15:10:24.253Z,67.90
2017-06-18T15:12:52.563Z,67.90
2017-06-18T15:15:20.085Z,67.90
2017-06-18T15:17:48.368Z,69.20
2017-06-18T15:20:15.876Z,69.20
2017-06-18T15:22:43.404Z,68.00
2017-06-18T15:25:10.966Z,67.90
2017-06-18T15:27:38.460Z,67.90
2017-06-18T15:30:05.978Z,68.30
2017-06-18T15:32:33.500Z,68.70
2017-06-18T15:35:01.008Z,67.80
2017-06-18T15:37:28.789Z,68.00
2017-06-18T15:39:56.292Z,68.50
2017-06-18T15:42:23.812Z,68.10
2017-06-18T15:44:51.342Z,68.80
2017-06-18T15:47:18.842Z,70.60
2017-06-18T15:49:46.389Z,70.50
2017-06-18T15:52:13.889Z,69.10
2017-06-18T15:54:41.413Z,68.00
2017-06-18T15:57:08.985Z,69.10
2017-06-18T15:59:36.493Z,68.80
2017-06-18T16:02:04.786Z,68.70
2017-06-18T16:04:32.296Z,68.70
2017-06-18T16:06:59.821Z,69.00
2017-06-18T16:09:27.353Z,69.10
2017-06-18T16:11:54.869Z,67.90
2017-06-18T16:14:22.380Z,68.90
2017-06-18T16:16:50.211Z,69.10
2017-06-18T16:19:19.168Z,69.60
2017-06-18T16:21:46.686Z,69.50
2017-06-18T16:24:15.005Z,69.00
2017-06-18T16:26:42.502Z,69.00
2017-06-18T16:29:10.893Z,69.60
2017-06-18T16:31:39.202Z,69.50
2017-06-18T16:34:06.703Z,69.40
2017-06-18T16:36:34.210Z,70.10
2017-06-18T16:39:01.757Z,70.50
2017-06-18T16:41:30.047Z,70.90
2017-06-18T16:43:57.549Z,70.90
2017-06-18T16:46:25.080Z,71.40
2017-06-18T16:48:52.601Z,72.40
2017-06-18T16:51:20.388Z,71.30
2017-06-18T16:53:47.893Z,71.80
2017-06-18T16:56:15.407Z,71.50
2017-06-18T16:58:42.941Z,72.60
2017-06-18T17:01:11.334Z,73.40
2017-06-18T17:03:39.636Z,74.30
2017-06-18T17:06:07.157Z,74.20
2017-06-18T17:08:34.697Z,74.40
2017-06-18T17:11:02.221Z,73.50
2017-06-18T17:13:29.719Z,73.70
2017-06-18T17:15:57.265Z,73.90
2017-06-18T17:18:24.785Z,74.20
2017-06-18T17:20:52.279Z,74.70
2017-06-18T17:23:19.802Z,73.70
2017-06-18T17:25:47.310Z,76.20
2017-06-18T17:28:15.094Z,76.80
2017-06-18T17:30:42.624Z,76.30
2017-06-18T17:33:10.138Z,77.60
2017-06-18T17:35:37.664Z,77.60
2017-06-18T17:38:05.169Z,77.00
2017-06-18T17:40:32.692Z,77.90
2017-06-18T17:43:00.209Z,78.40
2017-06-18T17:45:27.738Z,77.70
2017-06-18T17:47:56.032Z,79.60
2017-06-18T17:50:23.541Z,79.70
2017-06-18T17:52:51.084Z,79.00
2017-06-18T17:55:18.592Z,79.70
2017-06-18T17:57:46.886Z,79.80
2017-06-18T18:00:14.413Z,79.80
2017-06-18T18:02:41.927Z,80.30
2017-06-18T18:05:09.450Z,80.40
2017-06-18T18:07:37.717Z,82.00
2017-06-18T18:10:05.235Z,82.00
2017-06-18T18:12:32.754Z,82.10
2017-06-18T18:15:00.248Z,82.10
2017-06-18T18:17:28.064Z,82.80
2017-06-18T18:19:56.485Z,83.90
2017-06-18T18:22:23.999Z,83.70
2017-06-18T18:24:51.508Z,83.90
2017-06-18T18:27:19.029Z,83.80
2017-06-18T18:29:47.640Z,83.30
2017-06-18T18:32:15.151Z,83.20
2017-06-18T18:34:42.650Z,83.90
2017-06-18T18:37:10.164Z,85.60
2017-06-18T18:39:37.677Z,86.50
2017-06-18T18:42:05.227Z,86.40
2017-06-18T18:44:32.751Z,87.00
2017-06-18T18:47:00.248Z,86.50
2017-06-18T18:49:27.781Z,86.70
2017-06-18T18:51:56.070Z,87.80
2017-06-18T18:54:23.596Z,87.80
2017-06-18T18:56:51.109Z,87.50
2017-06-18T18:59:18.629Z,87.50
2017-06-18T19:01:46.140Z,88.60
2017-06-18T19:04:13.659Z,88.00
2017-06-18T19:06:41.484Z,87.60
2017-06-18T19:09:09.018Z,88.50
2017-06-18T19:11:36.562Z,89.80
2017-06-18T19:14:04.079Z,90.10
2017-06-18T19:16:31.579Z,90.10
2017-06-18T19:18:59.107Z,89.80
2017-06-18T19:21:26.604Z,89.80
2017-06-18T19:23:54.112Z,90.30
2017-06-18T19:26:21.647Z,90.40
2017-06-18T19:28:49.167Z,90.50
2017-06-18T19:31:16.902Z,90.40
2017-06-18T19:33:44.432Z,90.40
2017-06-18T19:36:11.969Z,90.30
2017-06-18T19:38:39.486Z,90.30
2017-06-18T19:41:07.000Z,90.70
2017-06-18T19:43:34.875Z,90.80
2017-06-18T19:46:02.400Z,90.80
2017-06-18T19:48:29.920Z,90.70
2017-06-18T19:50:57.468Z,90.80
2017-06-18T19:53:24.982Z,91.00
2017-06-18T19:55:52.535Z,91.40
2017-06-18T19:58:20.080Z,91.90
2017-06-18T20:00:47.586Z,92.00
2017-06-18T20:03:15.107Z,92.70
2017-06-18T20:05:43.467Z,93.40
2017-06-18T20:08:11.265Z,93.40
2017-06-18T20:10:38.798Z,93.60
2017-06-18T20:13:06.303Z,93.80
2017-06-18T20:15:33.847Z,93.70
2017-06-18T20:18:01.365Z,93.90
2017-06-18T20:20:28.920Z,93.90
2017-06-18T20:22:56.464Z,93.90
2017-06-18T20:25:23.981Z,94.10
2017-06-18T20:27:52.285Z,94.30
2017-06-18T20:30:19.811Z,94.20
2017-06-18T20:32:50.069Z,94.60
2017-06-18T20:35:17.602Z,94.60
2017-06-18T20:37:45.896Z,94.80
2017-06-18T20:40:13.443Z,94.80
2017-06-18T20:42:40.956Z,96.00
2017-06-18T20:45:08.773Z,96.80
2017-06-18T20:47:36.309Z,96.40
2017-06-18T20:50:03.837Z,96.60
2017-06-18T20:52:31.383Z,96.40
2017-06-18T20:54:58.901Z,96.70
2017-06-18T20:57:26.456Z,96.80
2017-06-18T20:59:54.795Z,98.50
2017-06-18T21:02:22.323Z,98.40
2017-06-18T21:04:49.843Z,98.70
2017-06-18T21:07:17.339Z,98.80
2017-06-18T21:09:44.889Z,99.50
2017-06-18T21:12:12.392Z,99.90
2017-06-18T21:14:39.905Z,99.80
2017-06-18T21:17:07.428Z,99.90
2017-06-18T21:19:34.932Z,99.90
2017-06-18T21:22:02.481Z,99.90
2017-06-18T21:24:30.757Z,99.90
2017-06-18T21:26:58.267Z,99.90
2017-06-18T21:29:25.782Z,99.90
2017-06-18T21:31:53.288Z,99.90
2017-06-18T21:34:21.152Z,99.90
2017-06-18T21:36:48.659Z,99.90
2017-06-18T21:39:16.921Z,99.90
2017-06-18T21:41:44.469Z,99.90
2017-06-18T21:44:11.987Z,99.90
2017-06-18T21:46:39.536Z,99.90
2017-06-18T21:49:07.048Z,99.90
2017-06-18T21:51:34.560Z,99.90
2017-06-18T21:54:02.069Z,99.90
2017-06-18T21:56:29.581Z,99.90
2017-06-18T21:58:57.102Z,99.90
2017-06-18T22:01:25.672Z,99.90
2017-06-18T22:03:53.204Z,99.90
2017-06-18T22:06:20.722Z,99.90
2017-06-18T22:08:48.506Z,99.90
2017-06-18T22:11:16.017Z,99.90
2017-06-18T22:13:43.508Z,99.90
2017-06-18T22:16:11.055Z,99.90
2017-06-18T22:18:38.554Z,99.90
2017-06-18T22:21:06.352Z,99.90
2017-06-18T22:23:33.851Z,99.90
2017-06-18T22:26:01.359Z,99.90
2017-06-18T22:28:28.891Z,99.90
2017-06-18T22:30:56.405Z,99.90
2017-06-18T22:33:23.941Z,99.90
2017-06-18T22:35:51.467Z,99.90
2017-06-18T22:38:18.983Z,99.90
2017-06-18T22:40:46.512Z,99.90
2017-06-18T22:43:14.032Z,99.90
2017-06-18T22:45:42.356Z,99.90
2017-06-18T22:48:09.863Z,99.90
2017-06-18T22:50:37.371Z,99.90
2017-06-18T22:53:05.813Z,99.90
2017-06-18T22:55:33.334Z,99.90
2017-06-18T22:58:00.861Z,99.90
2017-06-18T23:00:28.356Z,99.90
2017-06-18T23:02:55.865Z,99.90
2017-06-18T23:05:23.444Z,99.90
2017-06-18T23:07:50.964Z,99.90
2017-06-18T23:10:19.284Z,99.90
2017-06-18T23:12:46.781Z,99.90
2017-06-18T23:15:15.125Z,99.90
2017-06-18T23:17:42.640Z,99.90
2017-06-18T23:20:10.145Z,99.90
2017-06-18T23:22:37.680Z,99.90
2017-06-18T23:25:05.169Z,99.90
2017-06-18T23:27:32.676Z,99.90
2017-06-18T23:30:00.214Z,99.90
2017-06-18T23:32:27.734Z,99.90
2017-06-18T23:34:55.311Z,99.90
2017-06-18T23:37:22.812Z,99.90
2017-06-18T23:39:51.188Z,99.90
2017-06-18T23:42:19.461Z,99.90
2017-06-18T23:44:47.728Z,99.90
2017-06-18T23:47:15.277Z,99.90
2017-06-18T23:49:42.776Z,99.90
2017-06-18T23:52:10.272Z,99.90
2017-06-18T23:54:37.793Z,99.90
2017-06-18T23:57:05.306Z,99.90
2017-06-18T23:59:33.088Z,99.90
